Time;durP1;ratioP1;P1;durP2;ratioP2;P2;SDS_P1;SDS_P2;PMS_P1;PMS_P2;Temp;Humidity;BMP_temperature;BMP_pressure;BME280_temperature;BME280_humidity;BME280_pressure;Samples;Min_cycle;Max_cycle;Signal;HPM_P1;HPM_P2
2023/04/19 00:01:16;;;;;;;11.07;7.20;;;;;;;6.14;100.00;103233.75;5017924;28;20218;-70
2023/04/19 00:03:42;;;;;;;11.97;6.80;;;;;;;6.11;100.00;103236.03;5019847;28;20695;-70
2023/04/19 00:06:10;;;;;;;11.40;7.87;;;;;;;6.09;100.00;103246.13;5024362;28;20194;-70
2023/04/19 00:08:43;;;;;;;11.47;6.97;;;;;;;6.08;100.00;103226.53;5020311;28;20746;-70
2023/04/19 00:11:15;;;;;;;11.23;6.87;;;;;;;6.03;100.00;103222.75;5019223;28;20694;-70
2023/04/19 00:13:41;;;;;;;11.70;7.07;;;;;;;6.01;100.00;103219.22;4999178;28;20570;-70
2023/04/19 00:16:09;;;;;;;7.93;6.10;;;;;;;6.01;100.00;103215.78;5022295;28;20201;-70
2023/04/19 00:18:45;;;;;;;10.53;6.70;;;;;;;6.00;100.00;103202.22;5025011;28;20622;-70
2023/04/19 00:21:18;;;;;;;7.90;5.70;;;;;;;5.98;100.00;103192.69;5004830;28;20745;-70
2023/04/19 00:23:47;;;;;;;9.07;6.17;;;;;;;5.90;100.00;103198.84;5017628;28;20565;-70
2023/04/19 00:26:15;;;;;;;11.87;6.83;;;;;;;5.84;100.00;103199.25;5007336;28;20694;-70
2023/04/19 00:28:46;;;;;;;11.37;6.00;;;;;;;5.85;100.00;103201.03;5017959;28;20243;-69
2023/04/19 00:31:18;;;;;;;8.90;5.43;;;;;;;5.87;100.00;103186.78;5023423;28;20660;-69
2023/04/19 00:33:51;;;;;;;8.63;6.20;;;;;;;5.82;100.00;103188.09;5022229;28;20201;-69
2023/04/19 00:36:19;;;;;;;7.47;5.90;;;;;;;5.86;100.00;103186.66;4993269;28;20194;-70
2023/04/19 00:38:50;;;;;;;11.97;6.57;;;;;;;5.78;100.00;103190.25;5015791;28;20237;-71
2023/04/19 00:41:21;;;;;;;10.33;6.00;;;;;;;5.76;100.00;103184.16;5007193;28;20218;-71
2023/04/19 00:43:52;;;;;;;8.57;5.87;;;;;;;5.75;100.00;103190.91;5011675;28;20190;-70
2023/04/19 00:46:21;;;;;;;8.87;6.10;;;;;;;5.72;100.00;103185.59;5024356;28;20198;-71
2023/04/19 00:48:48;;;;;;;8.57;5.63;;;;;;;5.69;100.00;103190.44;5016254;28;20215;-71
2023/04/19 00:51:17;;;;;;;6.70;5.30;;;;;;;5.66;100.00;103197.81;5004850;28;20723;-70
2023/04/19 00:53:43;;;;;;;7.90;5.20;;;;;;;5.68;100.00;103192.84;4983988;28;20345;-70
2023/04/19 00:56:13;;;;;;;6.83;5.27;;;;;;;5.55;100.00;103201.22;5019099;28;20572;-69
2023/04/19 00:58:42;;;;;;;10.33;5.17;;;;;;;5.47;100.00;103209.88;5009198;28;20271;-70
2023/04/19 01:01:08;;;;;;;10.50;5.37;;;;;;;5.37;100.00;103226.81;5013163;28;20226;-70
2023/04/19 01:03:37;;;;;;;9.70;5.30;;;;;;;5.41;100.00;103216.13;5021226;28;20235;-69
2023/04/19 01:06:03;;;;;;;8.77;5.47;;;;;;;5.43;100.00;103210.41;5023771;28;20217;-70
2023/04/19 01:08:35;;;;;;;9.23;5.93;;;;;;;5.39;100.00;103210.94;5011027;28;20717;-70
2023/04/19 01:11:03;;;;;;;8.63;5.57;;;;;;;5.40;100.00;103206.75;5013052;28;20201;-70
2023/04/19 01:13:31;;;;;;;7.97;5.57;;;;;;;5.41;100.00;103198.34;5010644;28;20221;-70
2023/04/19 01:16:02;;;;;;;7.97;5.10;;;;;;;5.37;100.00;103199.78;5025444;28;20186;-70
2023/04/19 01:18:36;;;;;;;10.37;4.80;;;;;;;5.33;100.00;103197.75;5021748;28;20202;-70
2023/04/19 01:21:03;;;;;;;7.77;4.80;;;;;;;5.35;100.00;103191.13;5011484;28;20244;-70
2023/04/19 01:23:31;;;;;;;8.63;5.10;;;;;;;5.33;100.00;103196.88;5005649;28;20223;-68
2023/04/19 01:26:00;;;;;;;8.93;4.57;;;;;;;5.31;100.00;103195.88;5019580;28;20190;-70
2023/04/19 01:28:31;;;;;;;8.50;5.00;;;;;;;5.28;100.00;103188.91;5007411;28;20211;-70
2023/04/19 01:30:56;;;;;;;8.20;4.70;;;;;;;5.28;100.00;103185.47;5024106;28;20289;-69
2023/04/19 01:33:28;;;;;;;6.50;4.40;;;;;;;5.25;100.00;103175.94;5007880;28;20791;-70
2023/04/19 01:35:53;;;;;;;7.27;4.33;;;;;;;5.28;100.00;103172.75;5019652;28;20218;-70
2023/04/19 01:38:22;;;;;;;10.43;4.07;;;;;;;5.25;100.00;103172.56;5018241;28;20304;-69
2023/04/19 01:40:56;;;;;;;6.67;3.67;;;;;;;5.23;100.00;103162.25;5021219;28;20223;-70
2023/04/19 01:43:23;;;;;;;7.37;4.13;;;;;;;5.24;100.00;103165.66;5006070;28;20281;-70
2023/04/19 01:45:49;;;;;;;6.33;3.83;;;;;;;5.22;100.00;103159.59;5012909;28;21004;-70
2023/04/19 01:48:20;;;;;;;6.63;3.97;;;;;;;5.21;100.00;103158.69;5012028;28;20209;-69
2023/04/19 01:50:46;;;;;;;6.03;3.50;;;;;;;5.26;100.00;103141.31;4999143;28;20187;-69
2023/04/19 01:53:12;;;;;;;7.97;3.67;;;;;;;5.22;100.00;103155.41;5007293;28;20191;-70
2023/04/19 01:55:41;;;;;;;5.60;3.63;;;;;;;5.22;100.00;103150.34;5002827;28;20199;-70
2023/04/19 01:58:10;;;;;;;5.60;3.70;;;;;;;5.21;100.00;103148.53;5010109;28;20225;-70
2023/04/19 02:00:35;;;;;;;4.97;3.40;;;;;;;5.17;100.00;103148.19;5007388;28;20217;-69
2023/04/19 02:03:06;;;;;;;4.80;3.33;;;;;;;5.17;100.00;103158.34;5018996;28;20718;-69
2023/04/19 02:05:37;;;;;;;6.43;3.60;;;;;;;5.19;100.00;103151.72;5020606;28;20190;-69
2023/04/19 02:08:06;;;;;;;5.13;3.57;;;;;;;5.16;100.00;103164.22;5019250;28;20737;-70
2023/04/19 02:10:32;;;;;;;5.47;3.73;;;;;;;5.15;100.00;103170.06;5022338;28;20191;-69
2023/04/19 02:13:01;;;;;;;3.90;3.10;;;;;;;5.13;100.00;103167.41;5007488;28;20198;-70
2023/04/19 02:15:38;;;;;;;5.00;3.40;;;;;;;5.11;100.00;103170.59;5024261;28;20301;-70
2023/04/19 02:18:07;;;;;;;5.73;3.30;;;;;;;5.14;100.00;103181.88;5000847;28;20242;-70
2023/04/19 02:20:32;;;;;;;6.13;3.43;;;;;;;5.11;100.00;103183.28;5019266;28;20214;-70
2023/04/19 02:22:58;;;;;;;5.00;3.63;;;;;;;5.15;100.00;103181.09;5015941;28;20203;-70
2023/04/19 02:25:26;;;;;;;4.37;3.50;;;;;;;5.11;100.00;103185.81;5007114;28;20191;-70
2023/04/19 02:27:52;;;;;;;5.00;3.30;;;;;;;5.05;100.00;103198.91;5007192;28;20300;-70
2023/04/19 02:30:18;;;;;;;7.53;3.43;;;;;;;5.05;100.00;103201.44;5007419;28;20182;-70
2023/04/19 02:32:47;;;;;;;6.63;3.70;;;;;;;4.94;100.00;103207.34;5011045;28;20625;-70
2023/04/19 02:35:16;;;;;;;7.03;3.93;;;;;;;4.96;100.00;103202.34;5015768;28;20202;-70
2023/04/19 02:37:48;;;;;;;6.30;3.80;;;;;;;4.90;100.00;103210.41;5019185;28;20206;-69
2023/04/19 02:40:17;;;;;;;4.73;3.60;;;;;;;4.87;100.00;103214.31;5005364;28;20215;-69
2023/04/19 02:42:43;;;;;;;7.37;3.60;;;;;;;4.91;100.00;103208.72;5017601;28;20234;-69
2023/04/19 02:45:09;;;;;;;6.87;3.80;;;;;;;4.89;100.00;103213.69;5021884;28;20230;-71
2023/04/19 02:47:38;;;;;;;5.30;3.77;;;;;;;4.82;100.00;103207.97;5026944;28;20221;-70
2023/04/19 02:50:04;;;;;;;4.63;3.53;;;;;;;4.82;100.00;103207.97;5019570;28;20197;-69
2023/04/19 02:52:33;;;;;;;7.20;3.93;;;;;;;4.80;100.00;103196.84;5009823;28;20195;-70
2023/04/19 02:54:59;;;;;;;6.70;3.70;;;;;;;4.77;100.00;103201.66;5009213;28;20211;-70
2023/04/19 02:57:28;;;;;;;6.80;3.40;;;;;;;4.73;100.00;103204.72;5007659;28;20576;-70
2023/04/19 02:59:57;;;;;;;6.07;3.90;;;;;;;4.72;100.00;103211.44;5008911;28;20213;-70
2023/04/19 03:02:29;;;;;;;7.27;3.97;;;;;;;4.71;100.00;103198.63;5007524;28;20199;-70
2023/04/19 03:04:58;;;;;;;5.67;3.40;;;;;;;4.72;100.00;103190.25;5003920;28;20197;-70
2023/04/19 03:07:28;;;;;;;8.53;4.03;;;;;;;4.66;100.00;103185.59;5018167;28;20217;-70
2023/04/19 03:10:00;;;;;;;5.40;3.77;;;;;;;4.69;100.00;103182.41;5009635;28;20190;-70
2023/04/19 03:12:28;;;;;;;5.00;3.97;;;;;;;4.67;100.00;103167.06;5007255;28;20197;-69
2023/04/19 03:14:54;;;;;;;6.90;4.00;;;;;;;4.64;100.00;103174.44;5023498;28;20669;-69
2023/04/19 03:17:27;;;;;;;5.07;3.83;;;;;;;4.62;100.00;103175.97;5010546;28;20210;-70
2023/04/19 03:19:53;;;;;;;7.83;4.00;;;;;;;4.58;100.00;103173.03;5005112;28;20211;-69
2023/04/19 03:22:19;;;;;;;5.23;3.60;;;;;;;4.57;100.00;103162.03;4999819;28;20214;-69
2023/04/19 03:24:48;;;;;;;5.77;4.07;;;;;;;4.60;100.00;103161.38;5021796;28;20684;-69
2023/04/19 03:27:23;;;;;;;6.07;4.07;;;;;;;4.63;100.00;103167.59;5003802;28;20206;-69
2023/04/19 03:29:55;;;;;;;6.43;4.13;;;;;;;4.66;100.00;103161.88;5007012;28;20274;-69
2023/04/19 03:32:22;;;;;;;10.50;4.10;;;;;;;4.60;100.00;103159.72;5008426;28;20613;-70
2023/04/19 03:34:48;;;;;;;6.20;3.47;;;;;;;4.60;100.00;103152.09;5004180;28;20195;-70
2023/04/19 03:37:15;;;;;;;5.00;3.60;;;;;;;4.55;100.00;103152.53;4995035;28;20222;-69
2023/04/19 03:39:49;;;;;;;5.73;3.90;;;;;;;4.57;100.00;103150.97;5002265;28;20238;-69
2023/04/19 03:42:25;;;;;;;5.17;3.10;;;;;;;4.52;100.00;103155.66;5002683;28;20247;-69
2023/04/19 03:44:58;;;;;;;10.23;4.50;;;;;;;4.52;100.00;103150.59;5010742;28;20209;-69
2023/04/19 03:47:27;;;;;;;6.47;3.53;;;;;;;4.52;100.00;103144.66;5001890;28;20210;-69
2023/04/19 03:49:56;;;;;;;5.83;3.57;;;;;;;4.46;100.00;103149.25;5012949;28;20199;-69
2023/04/19 03:52:25;;;;;;;6.67;3.90;;;;;;;4.40;100.00;103147.09;5005797;28;20695;-69
2023/04/19 03:54:51;;;;;;;5.50;3.90;;;;;;;4.37;100.00;103144.28;5004947;28;20538;-70
2023/04/19 03:57:33;;;;;;;6.03;3.20;;;;;;;4.36;100.00;103141.63;5012535;28;20210;-68
2023/04/19 04:00:10;;;;;;;6.23;3.83;;;;;;;4.27;100.00;103141.78;5002646;28;20710;-68
2023/04/19 04:02:45;;;;;;;5.93;3.40;;;;;;;4.20;100.00;103148.78;5015604;28;20366;-70
2023/04/19 04:05:12;;;;;;;7.20;4.07;;;;;;;4.21;100.00;103141.28;5005703;28;20615;-70
2023/04/19 04:07:44;;;;;;;8.73;3.90;;;;;;;4.13;100.00;103138.88;5006300;28;20222;-69
2023/04/19 04:10:14;;;;;;;9.53;4.57;;;;;;;4.13;100.00;103134.72;5008771;28;20656;-69
2023/04/19 04:12:42;;;;;;;7.03;3.90;;;;;;;4.11;100.00;103128.66;5021759;28;20654;-69
2023/04/19 04:15:15;;;;;;;7.00;3.77;;;;;;;4.17;100.00;103130.78;5002190;28;20218;-69
2023/04/19 04:17:49;;;;;;;6.13;4.20;;;;;;;4.15;100.00;103133.16;5003161;28;20570;-70
2023/04/19 04:20:15;;;;;;;6.27;4.20;;;;;;;4.18;100.00;103128.38;5006055;28;20241;-69
2023/04/19 04:22:42;;;;;;;5.47;3.77;;;;;;;4.11;100.00;103133.72;5006601;28;20183;-70
2023/04/19 04:25:12;;;;;;;6.77;4.20;;;;;;;4.13;100.00;103133.81;5008896;28;20198;-70
2023/04/19 04:27:42;;;;;;;7.33;3.87;;;;;;;4.09;100.00;103132.69;5005993;28;20298;-69
2023/04/19 04:30:12;;;;;;;6.37;3.50;;;;;;;4.04;100.00;103133.97;5003205;28;20823;-69
2023/04/19 04:32:42;;;;;;;6.57;4.10;;;;;;;4.12;100.00;103129.50;5008096;28;20668;-70
2023/04/19 04:35:13;;;;;;;7.43;3.57;;;;;;;4.18;100.00;103127.50;5004692;28;20190;-70
2023/04/19 04:37:52;;;;;;;5.17;3.37;;;;;;;4.26;100.00;103128.97;5005593;28;20226;-70
2023/04/19 04:40:24;;;;;;;6.33;3.83;;;;;;;4.35;100.00;103125.56;5000620;28;20331;-71
2023/04/19 04:42:53;;;;;;;6.80;3.90;;;;;;;4.36;100.00;103128.94;5002067;28;20564;-70
2023/04/19 04:45:19;;;;;;;7.03;3.80;;;;;;;4.41;100.00;103120.97;5016169;28;20691;-70
2023/04/19 04:47:45;;;;;;;7.80;3.43;;;;;;;4.46;100.00;103131.50;5008604;28;20210;-69
2023/04/19 04:50:12;;;;;;;3.70;2.73;;;;;;;4.47;100.00;103123.97;5001862;28;20543;-70
2023/04/19 04:52:43;;;;;;;9.00;3.50;;;;;;;4.54;100.00;103125.38;5007560;28;20202;-69
2023/04/19 04:55:12;;;;;;;6.03;3.33;;;;;;;4.65;100.00;103132.19;5006416;28;20213;-69
2023/04/19 04:57:44;;;;;;;5.43;2.90;;;;;;;4.68;100.00;103133.31;4999371;28;20214;-69
2023/04/19 05:42:37;;;;;;;2.60;1.77;;;;;;;7.06;100.00;103041.19;5020889;28;20292;-68
2023/04/19 05:45:04;;;;;;;4.03;1.80;;;;;;;7.17;100.00;103032.59;4990736;28;20398;-70
2023/04/19 05:47:30;;;;;;;5.63;5.07;;;;;;;7.26;100.00;102989.91;5003544;28;20581;-69
2023/04/19 05:50:16;;;;;;;45.37;38.17;;;;;;;7.39;100.00;102995.03;5016117;28;20684;-70
2023/04/19 05:52:47;;;;;;;11.07;7.80;;;;;;;7.49;100.00;102996.50;5007078;28;20336;-70
2023/04/19 05:55:13;;;;;;;6.30;2.50;;;;;;;7.59;100.00;102968.28;5002239;28;20289;-70
2023/04/19 05:57:42;;;;;;;4.73;3.33;;;;;;;7.75;100.00;102946.47;5022636;28;20209;-70
2023/04/19 06:00:08;;;;;;;2.30;2.10;;;;;;;7.86;100.00;102937.81;5017660;28;20565;-69
2023/04/19 06:02:43;;;;;;;3.40;1.83;;;;;;;8.01;100.00;102897.97;5008209;28;20713;-69
2023/04/19 06:05:11;;;;;;;2.83;1.67;;;;;;;8.13;100.00;102875.78;5008127;28;20195;-72
2023/04/19 06:07:37;;;;;;;6.83;1.60;;;;;;;8.22;100.00;102844.88;5012822;28;20218;-70
2023/04/19 06:10:04;;;;;;;2.40;1.37;;;;;;;8.29;100.00;102849.56;4995849;28;20194;-70
2023/04/19 06:12:29;;;;;;;2.60;1.40;;;;;;;8.33;100.00;102836.19;5018985;28;20206;-69
2023/04/19 06:14:55;;;;;;;12.17;7.83;;;;;;;8.49;100.00;102806.59;5007409;28;20198;-69
2023/04/19 06:17:23;;;;;;;8.43;5.57;;;;;;;8.62;100.00;102814.16;5019151;28;20215;-69
2023/04/19 06:19:50;;;;;;;14.67;8.40;;;;;;;8.71;100.00;102778.94;5019740;28;20246;-69
2023/04/19 06:22:15;;;;;;;33.37;19.20;;;;;;;8.84;100.00;102762.66;5015897;28;20282;-69
2023/04/19 06:24:43;;;;;;;23.10;14.27;;;;;;;8.90;100.00;102737.47;5012116;28;20656;-69
2023/04/19 06:27:08;;;;;;;11.57;6.50;;;;;;;9.05;100.00;102715.31;5020689;28;20861;-69
2023/04/19 06:29:33;;;;;;;27.67;17.73;;;;;;;9.14;100.00;102703.94;5020802;28;20202;-69
2023/04/19 06:31:59;;;;;;;9.13;5.33;;;;;;;9.16;100.00;102666.56;5021884;28;20230;-70
2023/04/19 06:34:24;;;;;;;21.10;12.67;;;;;;;9.30;100.00;102639.19;5021532;28;20277;-69
2023/04/19 06:36:50;;;;;;;11.00;6.30;;;;;;;9.43;100.00;102646.69;5007184;28;20209;-69
2023/04/19 06:39:15;;;;;;;37.07;21.33;;;;;;;9.57;100.00;102648.28;5005099;28;20219;-69
2023/04/19 06:41:41;;;;;;;12.53;8.40;;;;;;;9.75;100.00;102641.56;5024220;28;20221;-69
2023/04/19 06:44:06;;;;;;;3.23;2.93;;;;;;;9.72;100.00;102606.47;5018762;28;20198;-69
2023/04/19 06:46:31;;;;;;;2.30;2.00;;;;;;;9.79;100.00;102582.09;5022559;28;20206;-69
2023/04/19 06:48:57;;;;;;;2.67;1.60;;;;;;;9.84;100.00;102561.06;5021847;28;20345;-69
2023/04/19 06:51:22;;;;;;;2.60;2.27;;;;;;;9.96;100.00;102537.75;5021090;28;20273;-69
2023/04/19 06:53:49;;;;;;;3.80;1.97;;;;;;;10.09;100.00;102523.09;5021302;28;20684;-69
2023/04/19 06:56:15;;;;;;;2.70;1.60;;;;;;;10.26;100.00;102526.47;5008476;28;20640;-69
2023/04/19 06:58:40;;;;;;;2.67;2.47;;;;;;;10.46;100.00;102500.97;5028192;28;20221;-69
2023/04/19 07:01:06;;;;;;;2.40;1.10;;;;;;;10.45;100.00;102465.06;5018643;28;20215;-69
2023/04/19 07:03:31;;;;;;;2.57;1.20;;;;;;;10.64;100.00;102476.22;5020198;28;20198;-69
2023/04/19 07:05:57;;;;;;;2.03;1.17;;;;;;;10.62;97.51;102415.47;5021482;28;20192;-69
2023/04/19 07:08:23;;;;;;;1.90;1.00;;;;;;;10.61;97.21;102403.47;5020884;28;20745;-68
2023/04/19 07:10:49;;;;;;;1.77;0.90;;;;;;;10.98;100.00;102424.78;5021000;28;20648;-69
2023/04/19 07:13:14;;;;;;;1.97;1.10;;;;;;;11.11;98.47;102429.63;5023525;28;20214;-69
2023/04/19 07:15:40;;;;;;;1.63;1.07;;;;;;;11.24;95.73;102401.97;5020074;28;20201;-69
2023/04/19 07:18:05;;;;;;;2.50;0.87;;;;;;;11.45;95.01;102389.16;5025402;28;20222;-69
2023/04/19 07:20:31;;;;;;;1.77;1.20;;;;;;;11.40;87.75;102341.94;5022740;28;20222;-70
2023/04/19 07:22:57;;;;;;;1.40;0.90;;;;;;;11.51;87.69;102349.25;5019708;28;20191;-70
2023/04/19 07:25:23;;;;;;;1.10;0.87;;;;;;;11.70;91.13;102368.84;5025339;28;20195;-69
2023/04/19 07:27:48;;;;;;;0.83;0.77;;;;;;;11.79;87.23;102348.66;5025799;28;20306;-69
2023/04/19 07:30:14;;;;;;;2.03;0.87;;;;;;;12.09;89.10;102353.28;5016715;28;20249;-69
2023/04/19 07:32:39;;;;;;;1.97;0.97;;;;;;;12.29;85.44;102344.59;5017398;28;20245;-69
2023/04/19 07:35:05;;;;;;;2.70;1.20;;;;;;;12.13;75.00;102272.94;5018152;28;20253;-69
2023/04/19 07:37:31;;;;;;;1.57;1.20;;;;;;;12.34;72.72;102242.91;5018406;28;20328;-69
2023/04/19 07:39:56;;;;;;;2.57;1.03;;;;;;;12.34;71.78;102242.00;5024074;28;20242;-68
2023/04/19 07:42:24;;;;;;;2.97;1.10;;;;;;;12.34;67.79;102200.91;5008929;28;20226;-70
2023/04/19 07:44:49;;;;;;;1.43;0.80;;;;;;;12.59;69.18;102221.50;5012730;28;20212;-68
2023/04/19 07:47:15;;;;;;;1.63;1.00;;;;;;;12.98;69.42;102247.66;5020067;28;20210;-67
2023/04/19 07:49:40;;;;;;;1.57;1.20;;;;;;;12.82;68.49;102228.25;5017211;28;20640;-69
2023/04/19 07:52:06;;;;;;;2.20;0.97;;;;;;;13.13;67.01;102237.84;5018521;28;20199;-69
2023/04/19 07:54:32;;;;;;;1.77;1.00;;;;;;;13.21;65.74;102247.53;5022948;28;20754;-68
2023/04/19 07:56:57;;;;;;;2.50;1.13;;;;;;;13.43;65.26;102270.53;5020900;28;20209;-68
2023/04/19 07:59:23;;;;;;;1.43;1.10;;;;;;;13.84;68.19;102300.09;5019500;28;20198;-68
2023/04/19 08:01:49;;;;;;;1.57;0.90;;;;;;;13.78;66.73;102310.22;5021370;28;20246;-69
2023/04/19 08:04:16;;;;;;;1.77;1.20;;;;;;;13.75;58.62;102250.91;5019577;28;20201;-68
2023/04/19 08:06:42;;;;;;;2.80;1.60;;;;;;;13.79;60.24;102283.63;5019406;28;20194;-69
2023/04/19 08:09:07;;;;;;;2.43;0.87;;;;;;;14.05;59.48;102272.38;5021193;28;20219;-67
2023/04/19 08:11:33;;;;;;;2.00;1.30;;;;;;;14.04;56.18;102288.69;5018146;28;20213;-68
2023/04/19 08:13:58;;;;;;;2.43;1.50;;;;;;;14.38;56.85;102330.03;5021202;28;20233;-69
2023/04/19 08:16:24;;;;;;;2.00;1.20;;;;;;;14.43;52.51;102289.81;5021164;28;20226;-68
2023/04/19 08:18:50;;;;;;;2.70;1.33;;;;;;;14.56;50.65;102295.34;5018309;28;20309;-69
2023/04/19 08:21:17;;;;;;;1.93;1.30;;;;;;;14.72;52.04;102345.59;5023914;28;20687;-70
2023/04/19 08:23:42;;;;;;;3.20;1.53;;;;;;;14.69;50.92;102342.94;5020473;28;20225;-68
2023/04/19 08:26:07;;;;;;;2.53;1.20;;;;;;;14.49;51.17;102359.56;5023672;28;20237;-68
2023/04/19 08:28:33;;;;;;;2.23;1.30;;;;;;;14.44;50.04;102361.13;5018935;28;20206;-69
2023/04/19 08:30:58;;;;;;;1.33;1.03;;;;;;;14.76;51.04;102368.06;5020116;28;20199;-68
2023/04/19 08:33:24;;;;;;;2.80;1.27;;;;;;;14.65;49.83;102362.59;5019790;28;20191;-68
2023/04/19 08:35:49;;;;;;;2.70;1.50;;;;;;;14.64;47.67;102349.69;5022327;28;20604;-68
2023/04/19 08:38:15;;;;;;;4.00;1.23;;;;;;;14.87;47.67;102369.22;5020582;28;20765;-67
2023/04/19 08:40:48;;;;;;;2.77;1.27;;;;;;;15.26;47.16;102386.59;5001175;28;20594;-70
2023/04/19 08:43:16;;;;;;;2.20;1.50;;;;;;;15.36;45.75;102355.06;5014727;28;20206;-69
2023/04/19 08:45:46;;;;;;;2.57;1.40;;;;;;;15.10;46.41;102401.66;5023925;28;20195;-68
2023/04/19 08:48:13;;;;;;;1.93;1.20;;;;;;;15.29;47.09;102440.88;5010906;28;20301;-68
2023/04/19 08:50:41;;;;;;;2.60;1.23;;;;;;;15.46;45.85;102402.59;5017704;28;20179;-66
2023/04/19 08:53:12;;;;;;;1.70;1.40;;;;;;;15.60;47.14;102430.53;5026344;28;20261;-66
2023/04/19 08:55:40;;;;;;;2.13;1.50;;;;;;;15.80;45.20;102393.09;5023319;28;20244;-68
2023/04/19 08:58:06;;;;;;;3.10;1.63;;;;;;;15.97;44.92;102407.28;5021028;28;20213;-68
2023/04/19 09:00:33;;;;;;;2.70;1.27;;;;;;;16.02;45.00;102426.34;5018574;28;20206;-67
2023/04/19 09:02:58;;;;;;;1.93;1.27;;;;;;;16.15;41.10;102379.28;5018417;28;20206;-68
2023/04/19 09:05:24;;;;;;;2.23;1.60;;;;;;;16.30;42.41;102441.63;5021756;28;20190;-68
2023/04/19 09:07:50;;;;;;;2.47;1.50;;;;;;;16.03;41.42;102601.25;5023938;28;20266;-68
2023/04/19 09:10:20;;;;;;;3.37;1.40;;;;;;;16.57;43.52;102651.78;5024005;28;20191;-68
2023/04/19 09:13:04;;;;;;;2.67;1.40;;;;;;;16.52;40.34;102603.34;5025508;28;20195;-67
2023/04/19 09:15:40;;;;;;;2.47;1.50;;;;;;;16.46;40.34;102624.78;5023214;28;20212;-67
2023/04/19 09:18:11;;;;;;;5.60;1.63;;;;;;;16.36;41.68;102648.66;5025267;28;20218;-69
2023/04/19 09:20:41;;;;;;;2.60;1.80;;;;;;;16.71;41.86;102650.38;5025431;28;20214;-68
2023/04/19 09:23:11;;;;;;;3.00;1.67;;;;;;;16.17;40.81;102632.63;5014356;28;20251;-69
2023/04/19 09:25:37;;;;;;;2.90;1.50;;;;;;;16.64;40.92;102624.34;5027873;28;20207;-69
2023/04/19 09:28:13;;;;;;;1.50;1.30;;;;;;;16.81;42.38;102648.91;5016238;28;20653;-69
2023/04/19 09:30:40;;;;;;;2.70;1.37;;;;;;;16.69;40.25;102602.03;5022675;28;20193;-69
2023/04/19 09:33:07;;;;;;;3.60;1.43;;;;;;;17.01;40.52;102624.34;5028739;28;20198;-69
2023/04/19 09:35:42;;;;;;;3.83;1.70;;;;;;;16.82;40.80;102630.84;5021250;28;20309;-69
2023/04/19 09:38:09;;;;;;;2.33;1.60;;;;;;;16.98;40.18;102609.59;5016389;28;20205;-68
2023/04/19 09:40:35;;;;;;;3.43;1.60;;;;;;;16.91;38.27;102594.78;5015285;28;20211;-69
2023/04/19 09:43:01;;;;;;;2.47;1.50;;;;;;;17.23;39.81;102640.34;5025024;28;20581;-69
2023/04/19 09:45:27;;;;;;;3.43;1.77;;;;;;;17.73;38.91;102625.88;5031368;28;20202;-69
2023/04/19 09:48:06;;;;;;;3.43;1.57;;;;;;;17.60;39.62;102631.66;5026636;28;20272;-69
2023/04/19 09:50:32;;;;;;;3.30;1.80;;;;;;;17.76;39.73;102631.09;5024749;28;20218;-69
2023/04/19 09:52:58;;;;;;;2.13;1.60;;;;;;;16.90;37.23;102605.97;5031041;28;20629;-70
2023/04/19 09:55:25;;;;;;;2.93;1.80;;;;;;;17.27;37.20;102631.81;5025002;28;20249;-69
2023/04/19 09:57:52;;;;;;;3.40;1.73;;;;;;;17.07;35.98;102604.63;5026159;28;20222;-70
2023/04/19 10:00:20;;;;;;;2.93;1.63;;;;;;;16.80;35.44;102603.19;5021665;28;20218;-70
2023/04/19 10:02:53;;;;;;;1.97;1.57;;;;;;;17.06;35.97;102623.59;5011284;28;20754;-69
2023/04/19 10:05:24;;;;;;;3.07;1.70;;;;;;;16.85;35.80;102617.09;5028947;28;20209;-70
2023/04/19 10:07:51;;;;;;;3.73;1.67;;;;;;;17.24;36.20;102634.34;5007974;28;20256;-71
2023/04/19 10:10:17;;;;;;;3.27;1.93;;;;;;;17.20;35.38;102605.75;5017854;28;20241;-70
2023/04/19 10:12:48;;;;;;;3.47;1.77;;;;;;;17.34;35.44;102618.16;5025535;28;20186;-70
2023/04/19 10:15:14;;;;;;;2.10;1.73;;;;;;;17.36;35.23;102619.03;5027502;28;20394;-70
2023/04/19 10:17:40;;;;;;;3.40;1.57;;;;;;;17.30;34.65;102616.34;5028872;28;20395;-69
2023/04/19 10:20:09;;;;;;;2.10;1.87;;;;;;;17.14;33.41;102577.16;5028114;28;20560;-70
2023/04/19 10:22:38;;;;;;;4.97;1.80;;;;;;;17.39;35.03;102619.16;5029716;28;20343;-68
2023/04/19 10:25:28;;;;;;;2.53;1.70;;;;;;;17.33;34.29;102589.63;5026149;28;20859;-69
2023/04/19 10:27:54;;;;;;;2.27;1.87;;;;;;;17.31;34.23;102614.63;5024968;28;20298;-68
2023/04/19 10:30:23;;;;;;;3.57;1.83;;;;;;;17.25;34.72;102638.69;5029764;28;20609;-69
2023/04/19 10:32:55;;;;;;;9.07;2.30;;;;;;;17.34;34.66;102615.56;5018628;28;20210;-68
2023/04/19 10:35:28;;;;;;;6.20;2.30;;;;;;;17.67;34.01;102624.03;5026857;28;20217;-69
2023/04/19 10:38:15;;;;;;;5.13;2.20;;;;;;;17.33;33.37;102593.09;5023934;28;21274;-69
2023/04/19 10:40:59;;;;;;;3.93;2.10;;;;;;;17.78;34.71;102640.63;5020504;28;20238;-68
2023/04/19 10:43:25;;;;;;;3.30;2.03;;;;;;;17.20;33.68;102614.41;5003240;28;20198;-68
2023/04/19 10:45:52;;;;;;;2.87;2.00;;;;;;;17.50;34.18;102611.59;5025494;28;20191;-68
2023/04/19 10:48:29;;;;;;;3.27;2.50;;;;;;;17.81;32.19;102594.06;5021961;28;20301;-68
2023/04/19 10:51:04;;;;;;;2.37;2.13;;;;;;;18.05;32.74;102597.06;5020139;28;20261;-68
2023/04/19 10:53:49;;;;;;;2.60;2.00;;;;;;;18.29;33.35;102600.06;5027786;28;20208;-67
2023/04/19 10:56:35;;;;;;;3.90;1.90;;;;;;;18.17;33.76;102615.44;5019232;28;20244;-68
2023/04/19 11:01:50;;;;;;;3.93;2.17;;;;;;;17.92;31.73;102583.88;5022388;28;20324;-67
2023/04/19 11:04:30;;;;;;;5.63;2.20;;;;;;;17.39;31.75;102588.06;5024776;28;20193;-68
2023/04/19 11:07:06;;;;;;;4.00;2.17;;;;;;;17.78;31.39;102590.53;5025310;28;20201;-68
2023/04/19 11:09:37;;;;;;;4.13;1.70;;;;;;;17.61;32.88;102602.31;5027740;28;20197;-68
2023/04/19 11:12:08;;;;;;;3.17;2.00;;;;;;;18.21;34.48;102652.66;5021798;28;20667;-68
2023/04/19 11:14:36;;;;;;;3.27;1.70;;;;;;;17.71;31.90;102593.84;5025436;28;20213;-68
2023/04/19 11:17:24;;;;;;;3.33;1.77;;;;;;;17.62;32.89;102601.44;5020015;28;20701;-67
2023/04/19 11:20:08;;;;;;;3.77;1.97;;;;;;;17.35;32.11;102596.59;5027365;28;20247;-61
2023/04/19 11:22:36;;;;;;;4.70;2.10;;;;;;;17.51;33.81;102608.16;5026487;28;20689;-65
2023/04/19 11:25:07;;;;;;;2.83;1.80;;;;;;;17.31;33.01;102591.34;5026606;28;20273;-65
2023/04/19 11:27:34;;;;;;;5.37;2.00;;;;;;;17.63;32.76;102590.25;5008718;28;20284;-64
2023/04/19 11:30:11;;;;;;;3.67;1.80;;;;;;;16.86;33.03;102577.41;5022453;28;20188;-63
2023/04/19 11:32:43;;;;;;;2.87;1.73;;;;;;;17.59;33.35;102588.47;5014197;28;20229;-64
2023/04/19 11:35:09;;;;;;;5.80;1.90;;;;;;;17.54;31.87;102546.06;5022888;28;20187;-65
2023/04/19 11:37:36;;;;;;;2.30;1.63;;;;;;;17.53;31.74;102552.94;5022775;28;20218;-65
2023/04/19 11:40:01;;;;;;;3.03;1.57;;;;;;;17.82;33.15;102569.88;5021818;28;20227;-65
2023/04/19 11:42:27;;;;;;;5.87;2.37;;;;;;;17.69;31.27;102536.81;5021060;28;20197;-65
2023/04/19 11:44:56;;;;;;;3.23;2.03;;;;;;;17.39;31.24;102541.44;5022358;28;20207;-64
2023/04/19 11:47:21;;;;;;;2.53;1.93;;;;;;;17.71;32.47;102592.16;5024648;28;20217;-64
2023/04/19 11:49:47;;;;;;;2.20;1.97;;;;;;;17.89;32.69;102589.00;5025697;28;20191;-65
2023/04/19 11:52:21;;;;;;;3.67;2.00;;;;;;;17.86;32.33;102566.50;5026222;28;20286;-64
2023/04/19 11:54:47;;;;;;;2.60;1.53;;;;;;;18.10;32.68;102577.28;5018367;28;20183;-64
2023/04/19 11:57:12;;;;;;;3.73;1.63;;;;;;;18.23;33.17;102573.19;5020571;28;20218;-65
2023/04/19 11:59:38;;;;;;;4.07;2.03;;;;;;;17.45;31.17;102543.28;5022302;28;20574;-65
2023/04/19 12:02:12;;;;;;;4.83;2.10;;;;;;;17.30;31.37;102546.41;5022776;28;20560;-64
2023/04/19 12:04:38;;;;;;;5.50;1.80;;;;;;;17.67;32.12;102559.25;5024785;28;20344;-65
2023/04/19 12:07:05;;;;;;;3.27;1.70;;;;;;;17.70;32.51;102567.09;5027414;28;20189;-64
2023/04/19 12:09:35;;;;;;;2.87;1.50;;;;;;;17.43;32.67;102570.88;5022032;28;20186;-64
2023/04/19 12:12:01;;;;;;;4.83;2.13;;;;;;;17.35;31.39;102549.97;5019503;28;20206;-65
2023/04/19 12:14:28;;;;;;;2.70;1.70;;;;;;;17.12;31.80;102551.22;5018407;28;20213;-64
2023/04/19 12:17:04;;;;;;;4.33;1.87;;;;;;;17.15;30.96;102537.47;5008341;28;20186;-65